Home   Weather   Spain   Salou   Past weeks
Flag for Spain

Past Weather in Salou, Tarragona, Spain — Yesterday and Last 2 Weeks

Currently: 41 °F. Clear. (Weather station: Reus / Aeropuerto, Spain). See more current weather

Past Weather in Salou — Graph

°F

Salou Temperature Yesterday

Maximum temperature yesterday: 63 °F (at 5:00 pm)
Minimum temperature yesterday: 43 °F (at 9:00 pm)
Average temperature yesterday: 53 °F

High & Low Weather Summary for the Past Weeks

 TemperatureHumidityPressure
High70 °F (Feb 18, 3:00 pm)100% (Feb 9, 10:30 am)30.51 "Hg (Feb 9, 10:30 am)
Low41 °F (Feb 12, 3:30 am)27% (Feb 23, 4:00 pm)29.09 "Hg (Feb 10, 3:00 am)
Average55 °F72%30.00 "Hg
* Reported Feb 8 11:00 pm — Feb 23 11:00 pm, Salou. Weather by CustomWeather, © 2024

Note: Actual official high and low records may vary slightly from our data, if they occured in-between our weather recording intervals... More about our weather records

Salou Weather History for the Previous 24 Hours

Scroll right to see more
 ConditionsComfort  
Time TempWeatherWind HumidityBarometerVisibility
11:00 pm
Fri, Feb 23
50 °FClear.8 mph50%29.71 "Hg10 mi
10:30 pm45 °FClear.1 mph57%29.71 "Hg10 mi
10:00 pm46 °FClear.1 mph53%29.71 "Hg10 mi
9:30 pm46 °FClear.2 mph50%29.71 "Hg10 mi
9:00 pm43 °FClear.1 mph57%29.71 "Hg10 mi
8:30 pm48 °FClear.6 mph46%29.71 "Hg10 mi
8:00 pm48 °FPassing clouds.3 mph46%29.71 "HgN/A
7:30 pm50 °FClear.3 mph47%29.71 "Hg10 mi
7:00 pm55 °FClear.6 mph36%29.71 "Hg10 mi
6:30 pm57 °FPassing clouds.12 mph33%29.71 "HgN/A
6:00 pm59 °FPassing clouds.10 mph31%29.71 "HgN/A
5:30 pm61 °FSunny.24 mph27%29.68 "Hg10 mi
5:00 pm63 °FPassing clouds.10 mph30%29.71 "HgN/A
4:30 pm61 °FPassing clouds.16 mph29%29.68 "HgN/A
4:00 pm61 °FPassing clouds.20 mph27%29.68 "HgN/A
3:30 pm59 °FPassing clouds.20 mph31%29.71 "HgN/A
3:00 pm61 °FPassing clouds.18 mph29%29.71 "HgN/A
2:00 pm59 °FPassing clouds.28 mph34%29.71 "HgN/A
1:30 pm59 °FPassing clouds.29 mph36%29.71 "HgN/A
1:00 pm59 °FPassing clouds.28 mph34%29.71 "HgN/A
12:30 pm57 °FPassing clouds.25 mph39%29.74 "HgN/A
12:00 pm57 °FPassing clouds.24 mph39%29.74 "HgN/A
11:30 am55 °FSunny.23 mph41%29.74 "Hg10 mi
11:00 am55 °FPassing clouds.23 mph44%29.74 "HgN/A
10:30 am54 °FPassing clouds.22 mph44%29.74 "HgN/A
10:00 am52 °FPassing clouds.21 mph50%29.74 "HgN/A
9:30 am52 °FPassing clouds.15 mph50%29.74 "HgN/A
9:00 am50 °FPassing clouds.9 mph58%29.71 "HgN/A
8:30 am48 °FPassing clouds.8 mph58%29.71 "HgN/A
8:00 am48 °FPassing clouds.12 mph58%29.68 "HgN/A
7:30 am50 °FPassing clouds.17 mph47%29.68 "HgN/A
7:00 am50 °FPassing clouds.20 mph47%29.65 "HgN/A
6:30 am48 °FPassing clouds.13 mph54%29.68 "HgN/A
6:00 am48 °FPassing clouds.6 mph54%29.68 "HgN/A
5:30 am48 °FPassing clouds.9 mph58%29.65 "HgN/A
5:00 am48 °FPassing clouds.7 mph58%29.65 "HgN/A
4:30 am50 °FPassing clouds.10 mph54%29.65 "HgN/A
4:00 am52 °FClear.22 mph54%29.65 "Hg10 mi
3:30 am52 °FClear.15 mph50%29.62 "Hg10 mi
3:00 am52 °FPassing clouds.17 mph58%29.65 "HgN/A
2:30 am52 °FPassing clouds.17 mph62%29.65 "HgN/A
2:00 am52 °FClear.23 mph67%29.68 "Hg10 mi
12:30 am55 °FClear.17 mph72%29.65 "Hg10 mi
12:00 am57 °FPassing clouds.21 mph72%29.65 "HgN/A
Weather by CustomWeather, © 2024

See weather overview